Time;durP1;ratioP1;P1;durP2;ratioP2;P2;SDS_P1;SDS_P2;PMS_P1;PMS_P2;Temp;Humidity;BMP_temperature;BMP_pressure;BME280_temperature;BME280_humidity;BME280_pressure;Samples;Min_cycle;Max_cycle;Signal;HPM_P1;HPM_P2
2023/07/25 00:00:01;;;;;;;15.60;6.15;;;;;;;-147.95;100.00;58458.38;5006115;28;20054;-74
2023/07/25 00:02:47;;;;;;;17.52;7.10;;;;;;;-147.95;100.00;58458.38;5001627;28;20046;-73
2023/07/25 00:05:35;;;;;;;12.05;6.55;;;;;;;-147.95;100.00;58458.38;4997905;28;20482;-73
2023/07/25 00:08:20;;;;;;;13.75;6.88;;;;;;;-147.95;100.00;58458.38;4998852;28;20029;-73
2023/07/25 00:11:12;;;;;;;15.80;6.60;;;;;;;-147.95;100.00;58458.38;5003581;28;20037;-74
2023/07/25 00:13:58;;;;;;;17.67;6.93;;;;;;;-147.95;100.00;58458.38;5000477;28;20109;-73
2023/07/25 00:16:43;;;;;;;13.50;6.60;;;;;;;-147.95;100.00;58458.38;5004747;28;20038;-73
2023/07/25 00:19:29;;;;;;;14.30;7.35;;;;;;;-147.95;100.00;58458.38;5006044;28;20056;-73
2023/07/25 00:22:15;;;;;;;15.48;7.93;;;;;;;-147.95;100.00;58458.38;4988766;28;20053;-73
2023/07/25 00:25:01;;;;;;;20.40;7.10;;;;;;;-147.95;100.00;58458.38;5009212;28;20043;-74
2023/07/25 00:27:46;;;;;;;19.67;7.07;;;;;;;-147.95;100.00;58458.38;5008687;28;20068;-74
2023/07/25 00:30:32;;;;;;;15.15;7.00;;;;;;;-147.95;100.00;58458.38;5002653;28;20038;-73
2023/07/25 00:33:18;;;;;;;14.40;7.10;;;;;;;-147.95;100.00;58458.38;5008751;28;20050;-74
2023/07/25 00:36:04;;;;;;;10.30;6.57;;;;;;;-147.95;100.00;58458.38;5010079;28;20405;-74
2023/07/25 00:38:50;;;;;;;15.07;7.57;;;;;;;-147.95;100.00;58458.38;5004753;28;20050;-74
2023/07/25 00:41:35;;;;;;;17.98;7.43;;;;;;;-147.95;100.00;58458.38;5003896;28;20034;-73
2023/07/25 00:44:21;;;;;;;15.95;8.95;;;;;;;-147.95;100.00;58458.38;5006672;28;20042;-73
2023/07/25 00:47:07;;;;;;;16.23;7.65;;;;;;;-147.95;100.00;58458.38;4997194;28;20046;-73
2023/07/25 00:49:54;;;;;;;17.50;7.95;;;;;;;-147.95;100.00;58458.38;5005859;28;20037;-73
2023/07/25 00:52:40;;;;;;;16.02;7.47;;;;;;;-147.95;100.00;58458.38;5003047;28;20158;-74
2023/07/25 00:55:27;;;;;;;15.95;7.82;;;;;;;-147.95;100.00;58458.38;5004067;28;20042;-74
2023/07/25 00:58:13;;;;;;;15.07;7.97;;;;;;;-147.95;100.00;58458.38;5005564;28;20092;-74
2023/07/25 01:01:06;;;;;;;16.00;7.80;;;;;;;-147.95;100.00;58458.38;5005798;28;20496;-74
2023/07/25 01:03:55;;;;;;;20.67;7.95;;;;;;;-147.95;100.00;58458.38;5003747;28;20128;-74
2023/07/25 01:06:41;;;;;;;13.32;7.53;;;;;;;-147.95;100.00;58458.38;5005918;28;20052;-74
2023/07/25 01:09:41;;;;;;;19.30;8.00;;;;;;;-147.95;100.00;58458.38;5008716;28;20169;-74
2023/07/25 01:12:27;;;;;;;21.55;7.88;;;;;;;-147.95;100.00;58458.38;5004611;28;20121;-73
2023/07/25 01:15:12;;;;;;;16.63;7.18;;;;;;;-147.95;100.00;58458.38;4988932;28;20092;-73
2023/07/25 01:17:59;;;;;;;14.98;7.75;;;;;;;-147.95;100.00;58458.38;5006614;28;20038;-73
2023/07/25 01:20:47;;;;;;;15.07;8.23;;;;;;;-147.95;100.00;58458.38;5007652;28;20065;-73
2023/07/25 01:23:33;;;;;;;20.77;8.15;;;;;;;-147.95;100.00;58458.38;4992985;28;20038;-73
2023/07/25 01:26:19;;;;;;;14.50;8.70;;;;;;;-147.95;100.00;58458.38;5005061;28;20069;-74
2023/07/25 01:29:04;;;;;;;18.00;7.72;;;;;;;-147.95;100.00;58458.38;5004802;28;20034;-73
2023/07/25 01:31:50;;;;;;;17.98;8.07;;;;;;;-147.95;100.00;58458.38;5008301;28;20042;-74
2023/07/25 01:34:36;;;;;;;20.40;8.52;;;;;;;-147.95;100.00;58458.38;5001925;28;20661;-73
2023/07/25 01:37:22;;;;;;;12.88;8.02;;;;;;;-147.95;100.00;58458.38;5006185;28;20485;-74
2023/07/25 01:40:08;;;;;;;15.88;8.55;;;;;;;-147.95;100.00;58458.38;5007026;28;20125;-74
2023/07/25 01:42:54;;;;;;;16.75;8.90;;;;;;;-147.95;100.00;58458.38;5003563;28;20050;-73
2023/07/25 01:45:39;;;;;;;24.55;8.98;;;;;;;-147.95;100.00;58458.38;5006675;28;20047;-73
2023/07/25 01:48:25;;;;;;;17.35;9.52;;;;;;;-147.95;100.00;58458.38;5016014;28;20041;-74
2023/07/25 01:51:11;;;;;;;32.78;9.30;;;;;;;-147.95;100.00;58458.38;4975979;28;20045;-74
2023/07/25 01:53:58;;;;;;;20.15;9.57;;;;;;;-147.95;100.00;58458.38;5001960;28;20586;-74
2023/07/25 01:56:44;;;;;;;18.98;8.73;;;;;;;-147.95;100.00;58458.38;4999925;28;20502;-73
2023/07/25 01:59:30;;;;;;;18.55;8.88;;;;;;;-147.95;100.00;58458.38;5005310;28;20038;-74
2023/07/25 02:02:16;;;;;;;17.08;9.07;;;;;;;-147.95;100.00;58458.38;5009035;28;20045;-73
2023/07/25 02:05:02;;;;;;;18.10;10.15;;;;;;;-147.95;100.00;58458.38;5003487;28;20397;-73
2023/07/25 02:07:47;;;;;;;23.88;10.23;;;;;;;-147.95;100.00;58458.38;5001587;28;20046;-74
2023/07/25 02:10:33;;;;;;;19.77;10.07;;;;;;;-147.95;100.00;58458.38;5001402;28;20513;-73
2023/07/25 02:13:19;;;;;;;23.48;10.63;;;;;;;-147.95;100.00;58458.38;5004034;28;20582;-74
2023/07/25 02:16:05;;;;;;;19.25;10.27;;;;;;;-147.95;100.00;58458.38;5005958;28;20049;-73
2023/07/25 02:18:50;;;;;;;19.60;11.30;;;;;;;-147.95;100.00;58458.38;5004312;28;20069;-74
2023/07/25 02:21:36;;;;;;;30.10;10.75;;;;;;;-147.95;100.00;58458.38;5000136;28;20053;-73
2023/07/25 02:24:22;;;;;;;19.75;10.18;;;;;;;-147.95;100.00;58458.38;4998000;28;20046;-73
2023/07/25 02:27:07;;;;;;;23.75;10.68;;;;;;;-147.95;100.00;58458.38;5005265;28;20030;-73
2023/07/25 02:29:53;;;;;;;18.83;11.15;;;;;;;-147.95;100.00;58458.38;5018999;28;20373;-73
2023/07/25 02:32:39;;;;;;;20.88;10.73;;;;;;;-147.95;100.00;58458.38;4994101;28;20085;-73
2023/07/25 02:35:25;;;;;;;20.85;10.27;;;;;;;-147.95;100.00;58458.38;5003931;28;20124;-73
2023/07/25 02:38:10;;;;;;;17.45;10.65;;;;;;;-147.95;100.00;58458.38;5003229;28;20373;-73
2023/07/25 02:40:57;;;;;;;22.85;11.30;;;;;;;-147.95;100.00;58458.38;5008326;28;20080;-73
2023/07/25 02:43:42;;;;;;;27.75;11.13;;;;;;;-147.95;100.00;58458.38;4999554;28;20157;-73
2023/07/25 02:46:28;;;;;;;26.88;10.80;;;;;;;-147.95;100.00;58458.38;5002096;28;20456;-73
2023/07/25 02:49:14;;;;;;;36.80;12.23;;;;;;;-147.95;100.00;58458.38;5006568;28;21212;-74
2023/07/25 02:52:00;;;;;;;22.30;10.52;;;;;;;-147.95;100.00;58458.38;5003096;28;20045;-74
2023/07/25 02:54:45;;;;;;;25.60;11.00;;;;;;;-147.95;100.00;58458.38;5004014;28;20042;-73
2023/07/25 02:57:31;;;;;;;23.95;11.52;;;;;;;-147.95;100.00;58458.38;5004569;28;20373;-73
2023/07/25 03:00:18;;;;;;;29.65;11.18;;;;;;;-147.95;100.00;58458.38;5008219;28;20057;-74
2023/07/25 03:03:04;;;;;;;27.20;11.30;;;;;;;-147.95;100.00;58458.38;5005846;28;20034;-73
2023/07/25 03:05:49;;;;;;;25.08;11.70;;;;;;;-147.95;100.00;58458.38;5007935;28;20085;-73
2023/07/25 03:08:35;;;;;;;22.88;11.50;;;;;;;-147.95;100.00;58458.38;5004807;28;20111;-72
2023/07/25 03:11:21;;;;;;;28.63;11.93;;;;;;;-147.95;100.00;58458.38;4993947;28;20049;-73
2023/07/25 03:14:07;;;;;;;27.25;11.55;;;;;;;-147.95;100.00;58458.38;5003007;28;20038;-73
2023/07/25 03:16:52;;;;;;;27.85;11.50;;;;;;;-147.95;100.00;58458.38;5006584;28;20038;-73
2023/07/25 03:19:38;;;;;;;28.52;12.73;;;;;;;-147.95;100.00;58458.38;5005210;28;20104;-73
2023/07/25 03:22:24;;;;;;;25.88;11.27;;;;;;;-147.95;100.00;58458.38;5006987;28;20045;-73
2023/07/25 03:25:10;;;;;;;24.77;10.68;;;;;;;-147.95;100.00;58458.38;5006608;28;20049;-72
2023/07/25 03:27:55;;;;;;;28.25;11.55;;;;;;;-147.95;100.00;58458.38;5003515;28;20052;-73
2023/07/25 03:30:41;;;;;;;24.60;11.63;;;;;;;-147.95;100.00;58458.38;5006167;28;20053;-73
2023/07/25 03:33:27;;;;;;;25.92;12.10;;;;;;;-147.95;100.00;58458.38;5005244;28;20136;-76
2023/07/25 03:36:13;;;;;;;26.02;11.88;;;;;;;-147.95;100.00;58458.38;4991519;28;20049;-73
2023/07/25 03:38:59;;;;;;;20.92;11.48;;;;;;;-147.95;100.00;58458.38;5006780;28;20469;-73
2023/07/25 03:41:44;;;;;;;20.38;11.57;;;;;;;-147.95;100.00;58458.38;5009966;28;20030;-73
2023/07/25 03:44:30;;;;;;;23.55;12.70;;;;;;;-147.95;100.00;58458.38;5000747;28;20092;-73
2023/07/25 03:47:16;;;;;;;23.58;11.52;;;;;;;-147.95;100.00;58458.38;5009816;28;20034;-73
2023/07/25 03:50:02;;;;;;;18.30;11.73;;;;;;;-147.95;100.00;58458.38;5006524;28;20046;-73
2023/07/25 03:52:48;;;;;;;32.05;12.90;;;;;;;-147.95;100.00;58458.38;5000932;28;20042;-73
2023/07/25 03:55:33;;;;;;;36.60;12.82;;;;;;;-147.95;100.00;58458.38;5005268;28;20073;-73
2023/07/25 03:58:19;;;;;;;30.13;12.18;;;;;;;-147.95;100.00;58458.38;5002512;28;20046;-73
2023/07/25 04:01:05;;;;;;;29.98;13.18;;;;;;;-147.95;100.00;58458.38;5000741;28;20129;-73
2023/07/25 04:03:51;;;;;;;27.83;13.35;;;;;;;-147.95;100.00;58458.38;4999608;28;20060;-71
2023/07/25 04:06:37;;;;;;;31.83;12.77;;;;;;;-147.95;100.00;58458.38;5001478;28;20046;-73
2023/07/25 04:09:23;;;;;;;32.53;13.75;;;;;;;-147.95;100.00;58458.38;5001880;28;20038;-73
2023/07/25 04:12:09;;;;;;;33.28;13.73;;;;;;;-147.95;100.00;58458.38;4975538;28;20038;-73
2023/07/25 04:14:54;;;;;;;37.47;13.55;;;;;;;-147.95;100.00;58458.38;5003938;28;20172;-73
2023/07/25 04:17:40;;;;;;;34.67;13.52;;;;;;;-147.95;100.00;58458.38;4992236;28;20046;-72
2023/07/25 04:20:26;;;;;;;28.42;13.20;;;;;;;-147.95;100.00;58458.38;4990408;28;20034;-74
2023/07/25 04:23:11;;;;;;;29.02;11.82;;;;;;;-147.95;100.00;58458.38;4996638;28;20045;-74
2023/07/25 04:25:57;;;;;;;32.95;13.48;;;;;;;-147.95;100.00;58458.38;4999801;28;20042;-74
2023/07/25 04:28:43;;;;;;;27.90;12.93;;;;;;;-147.95;100.00;58458.38;4972081;28;20133;-75
2023/07/25 04:31:29;;;;;;;35.90;13.20;;;;;;;-147.95;100.00;58458.38;4997654;28;20042;-71
2023/07/25 04:34:14;;;;;;;26.52;12.55;;;;;;;-147.95;100.00;58458.38;5004075;28;20042;-71
2023/07/25 04:37:00;;;;;;;23.90;13.40;;;;;;;-147.95;100.00;58458.38;4989423;28;20076;-73
2023/07/25 04:39:46;;;;;;;27.35;12.35;;;;;;;-147.95;100.00;58458.38;4999437;28;20139;-73
2023/07/25 04:42:31;;;;;;;22.55;12.48;;;;;;;-147.95;100.00;58458.38;5000828;28;20037;-72
2023/07/25 04:45:18;;;;;;;27.27;12.00;;;;;;;-147.95;100.00;58458.38;4996803;28;20183;-72
2023/07/25 04:48:04;;;;;;;22.83;11.27;;;;;;;-147.95;100.00;58458.38;4997534;28;20048;-72
2023/07/25 04:50:50;;;;;;;26.75;12.20;;;;;;;-147.95;100.00;58458.38;4994595;28;20057;-72
2023/07/25 04:53:36;;;;;;;21.50;11.18;;;;;;;-147.95;100.00;58458.38;4970694;28;20049;-72
2023/07/25 04:56:21;;;;;;;23.08;11.00;;;;;;;-147.95;100.00;58458.38;5002773;28;20081;-72
2023/07/25 04:59:08;;;;;;;19.17;11.60;;;;;;;-147.95;100.00;58458.38;5000690;28;20084;-72
2023/07/25 05:01:53;;;;;;;21.40;11.38;;;;;;;-147.95;100.00;58458.38;5000943;28;20058;-72
2023/07/25 05:04:39;;;;;;;30.42;11.07;;;;;;;-147.95;100.00;58458.38;5000837;28;20472;-71
2023/07/25 05:07:25;;;;;;;22.90;11.00;;;;;;;-147.95;100.00;58458.38;4979230;28;20026;-72
2023/07/25 05:10:10;;;;;;;28.60;11.35;;;;;;;-147.95;100.00;58458.38;4993226;28;20540;-72
2023/07/25 05:12:56;;;;;;;25.80;11.02;;;;;;;-147.95;100.00;58458.38;4980154;28;20073;-72
2023/07/25 05:15:42;;;;;;;20.08;10.02;;;;;;;-147.95;100.00;58458.38;5006281;28;20112;-72
2023/07/25 05:18:28;;;;;;;18.73;11.43;;;;;;;-147.95;100.00;58458.38;5010974;28;20039;-72
2023/07/25 05:21:14;;;;;;;27.70;12.38;;;;;;;-147.95;100.00;58458.38;4986513;28;20136;-72
2023/07/25 05:23:59;;;;;;;25.10;10.52;;;;;;;-147.95;100.00;58458.38;5008108;28;20090;-71
2023/07/25 05:26:45;;;;;;;23.60;11.13;;;;;;;-147.95;100.00;58458.38;5013384;28;20048;-72
2023/07/25 05:29:33;;;;;;;32.20;11.55;;;;;;;-147.95;100.00;58458.38;5015931;28;20050;-73
2023/07/25 05:32:21;;;;;;;21.52;9.52;;;;;;;-147.95;100.00;58458.38;5011703;28;20108;-73
2023/07/25 05:35:07;;;;;;;16.17;9.68;;;;;;;-147.95;100.00;58458.38;5006201;28;20097;-72
2023/07/25 05:37:53;;;;;;;19.15;10.57;;;;;;;-147.95;100.00;58458.38;5007933;28;20712;-73
2023/07/25 05:40:39;;;;;;;21.20;9.30;;;;;;;-147.95;100.00;58458.38;5011633;28;20103;-72
2023/07/25 05:43:24;;;;;;;25.25;9.88;;;;;;;-147.95;100.00;58458.38;5008689;28;20562;-72
2023/07/25 05:46:10;;;;;;;24.83;9.82;;;;;;;-147.95;100.00;58458.38;5005122;28;20123;-72
2023/07/25 05:48:56;;;;;;;22.23;10.18;;;;;;;-147.95;100.00;58458.38;4999213;28;20041;-73
2023/07/25 05:51:41;;;;;;;28.63;9.52;;;;;;;-147.95;100.00;58458.38;4994149;28;20046;-73
2023/07/25 05:54:29;;;;;;;22.23;10.00;;;;;;;-147.95;100.00;58458.38;5009748;28;20073;-73
2023/07/25 05:57:15;;;;;;;22.33;10.43;;;;;;;-147.95;100.00;58458.38;5006678;28;20046;-73
2023/07/25 06:00:01;;;;;;;24.52;10.10;;;;;;;-147.95;100.00;58458.38;5013073;28;20133;-73
2023/07/25 06:02:47;;;;;;;16.17;9.15;;;;;;;-147.95;100.00;58458.38;5012953;28;20042;-73
2023/07/25 06:05:34;;;;;;;22.15;9.85;;;;;;;-147.95;100.00;58458.38;5024783;28;20073;-73
2023/07/25 06:08:20;;;;;;;26.92;9.55;;;;;;;-147.95;100.00;58458.38;5009977;28;20026;-73
2023/07/25 06:11:06;;;;;;;22.55;8.23;;;;;;;-147.95;100.00;58458.38;5007776;28;20045;-73
2023/07/25 06:13:52;;;;;;;20.98;7.20;;;;;;;-147.95;100.00;58458.38;5003571;28;20460;-73
2023/07/25 06:16:38;;;;;;;25.75;8.75;;;;;;;-147.95;100.00;58458.38;5006252;28;20050;-73
2023/07/25 06:19:24;;;;;;;16.63;6.93;;;;;;;-147.95;100.00;58458.38;5001948;28;20038;-73
2023/07/25 06:22:10;;;;;;;14.77;7.63;;;;;;;-147.95;100.00;58458.38;5005926;28;20034;-71
2023/07/25 06:24:55;;;;;;;20.75;8.18;;;;;;;-147.95;100.00;58458.38;5016261;28;20026;-73
2023/07/25 06:27:41;;;;;;;18.27;7.90;;;;;;;-147.95;100.00;58458.38;5029604;28;20033;-72
2023/07/25 06:30:27;;;;;;;19.13;7.90;;;;;;;-147.95;100.00;58458.38;5001035;28;20425;-72
2023/07/25 06:33:14;;;;;;;23.27;8.20;;;;;;;-147.95;100.00;58458.38;5015166;28;20191;-72
2023/07/25 06:35:59;;;;;;;14.68;7.72;;;;;;;-147.95;100.00;58458.38;5002335;28;20055;-72
2023/07/25 06:38:45;;;;;;;18.88;7.40;;;;;;;-147.95;100.00;58458.38;5017074;28;20825;-72
2023/07/25 06:41:31;;;;;;;19.15;9.02;;;;;;;-147.95;100.00;58458.38;5019275;28;20119;-72
2023/07/25 06:44:19;;;;;;;23.25;7.57;;;;;;;-147.95;100.00;58458.38;5008595;28;20046;-72
2023/07/25 06:47:05;;;;;;;16.33;8.27;;;;;;;-147.95;100.00;58458.38;5015422;28;20041;-72
2023/07/25 06:49:51;;;;;;;25.83;8.23;;;;;;;-147.95;100.00;58458.38;5011417;28;20095;-72
2023/07/25 06:52:36;;;;;;;23.23;9.52;;;;;;;-147.95;100.00;58458.38;4996386;28;20081;-72
2023/07/25 06:55:22;;;;;;;29.73;8.88;;;;;;;-147.95;100.00;58458.38;5009118;28;20045;-72
2023/07/25 06:58:08;;;;;;;21.83;9.02;;;;;;;-147.95;100.00;58458.38;4989857;28;20124;-72
2023/07/25 07:00:53;;;;;;;16.75;8.45;;;;;;;-147.95;100.00;58458.38;5000652;28;20050;-72
2023/07/25 07:03:39;;;;;;;25.92;9.13;;;;;;;-147.95;100.00;58458.38;5001647;28;20049;-76
2023/07/25 07:06:25;;;;;;;21.90;9.10;;;;;;;-147.95;100.00;58458.38;5007802;28;20034;-72
2023/07/25 07:09:11;;;;;;;17.90;7.53;;;;;;;-147.95;100.00;58458.38;5012515;28;20053;-72
2023/07/25 07:11:56;;;;;;;18.35;7.15;;;;;;;-147.95;100.00;58458.38;5009705;28;20045;-73
2023/07/25 07:14:42;;;;;;;19.38;7.10;;;;;;;-147.95;100.00;58458.38;5019424;28;20057;-73
2023/07/25 07:17:28;;;;;;;14.88;5.97;;;;;;;-147.95;100.00;58458.38;5003481;28;20045;-73
2023/07/25 07:20:14;;;;;;;14.07;5.88;;;;;;;-147.95;100.00;58458.38;5007215;28;20042;-73
2023/07/25 07:23:00;;;;;;;16.10;5.97;;;;;;;-147.95;100.00;58458.38;5009116;28;20053;-73
2023/07/25 07:25:45;;;;;;;17.92;5.63;;;;;;;-147.95;100.00;58458.38;4991587;28;20052;-74
2023/07/25 07:28:31;;;;;;;17.88;5.78;;;;;;;-147.95;100.00;58458.38;5022245;28;20041;-73
2023/07/25 07:31:23;;;;;;;12.73;4.82;;;;;;;-147.95;100.00;58458.38;5025607;28;20042;-73
2023/07/25 07:34:14;;;;;;;17.27;5.47;;;;;;;-147.95;100.00;58458.38;5015207;28;20046;-73
2023/07/25 07:37:00;;;;;;;9.77;4.88;;;;;;;-147.95;100.00;58458.38;5008100;28;20050;-73
2023/07/25 07:39:46;;;;;;;10.88;4.60;;;;;;;-147.95;100.00;58458.38;5015260;28;20065;-73
2023/07/25 07:42:31;;;;;;;21.35;5.63;;;;;;;-147.95;100.00;58458.38;5019371;28;20065;-73
2023/07/25 07:45:17;;;;;;;11.77;5.57;;;;;;;-147.95;100.00;58458.38;5026937;28;20044;-74
2023/07/25 07:48:03;;;;;;;17.58;5.03;;;;;;;-147.95;100.00;58458.38;5027552;28;20037;-74
2023/07/25 07:50:49;;;;;;;17.35;5.82;;;;;;;-147.95;100.00;58458.38;5014318;28;20036;-74
2023/07/25 07:53:35;;;;;;;19.10;5.97;;;;;;;-147.95;100.00;58458.38;5013925;28;20370;-76
2023/07/25 07:56:21;;;;;;;12.60;4.78;;;;;;;-147.95;100.00;58458.38;5012437;28;20049;-73
2023/07/25 07:59:07;;;;;;;18.73;4.43;;;;;;;-147.95;100.00;58458.38;5005949;28;20046;-72
2023/07/25 08:01:53;;;;;;;15.40;4.72;;;;;;;-147.95;100.00;58458.38;5012011;28;20029;-72
2023/07/25 08:04:38;;;;;;;10.95;4.20;;;;;;;-147.95;100.00;58458.38;5016373;28;20038;-72
2023/07/25 08:07:24;;;;;;;17.13;4.13;;;;;;;-147.95;100.00;58458.38;5014071;28;20718;-72
2023/07/25 08:10:10;;;;;;;15.07;4.70;;;;;;;-147.95;100.00;58458.38;5007368;28;20038;-73
2023/07/25 08:12:56;;;;;;;20.00;4.40;;;;;;;-147.95;100.00;58458.38;5023993;28;20042;-74
2023/07/25 08:15:41;;;;;;;16.65;4.13;;;;;;;-147.95;100.00;58458.38;5036590;28;20505;-73
2023/07/25 08:18:27;;;;;;;15.52;3.50;;;;;;;-147.95;100.00;58458.38;5002269;28;20185;-73
2023/07/25 08:21:13;;;;;;;15.68;3.05;;;;;;;-147.95;100.00;58458.38;5020429;28;20049;-73
2023/07/25 08:23:58;;;;;;;14.73;2.90;;;;;;;-147.95;100.00;58458.38;4981749;28;20037;-72
2023/07/25 08:26:44;;;;;;;11.68;3.67;;;;;;;-147.95;100.00;58458.38;5008300;28;20038;-74
2023/07/25 08:29:30;;;;;;;15.68;2.95;;;;;;;-147.95;100.00;58458.38;5018263;28;20096;-72
2023/07/25 08:32:15;;;;;;;10.27;3.05;;;;;;;-147.95;100.00;58458.38;5018703;28;20044;-72
2023/07/25 08:35:01;;;;;;;12.98;3.72;;;;;;;-147.95;100.00;58458.38;5025048;28;20049;-73
2023/07/25 08:37:47;;;;;;;9.50;3.67;;;;;;;-147.95;100.00;58458.38;5025302;28;20042;-75
2023/07/25 08:40:33;;;;;;;13.98;3.58;;;;;;;-147.95;100.00;58458.38;5009094;28;20057;-75
2023/07/25 08:43:21;;;;;;;16.67;4.30;;;;;;;-147.95;100.00;58458.38;5012511;28;20514;-72
2023/07/25 08:46:09;;;;;;;16.95;4.75;;;;;;;-147.95;100.00;58458.38;5022371;28;20181;-72
2023/07/25 08:49:00;;;;;;;9.45;3.58;;;;;;;-147.95;100.00;58458.38;5004451;28;20540;-73
2023/07/25 08:51:48;;;;;;;10.05;3.28;;;;;;;-147.95;100.00;58458.38;5014968;28;20030;-72
2023/07/25 08:54:42;;;;;;;12.80;3.95;;;;;;;-147.95;100.00;58458.38;5020315;28;20056;-72
2023/07/25 08:57:29;;;;;;;15.43;4.10;;;;;;;-147.95;100.00;58458.38;5018408;28;20042;-72
2023/07/25 09:00:15;;;;;;;11.48;3.35;;;;;;;-147.95;100.00;58458.38;5009018;28;20034;-72
2023/07/25 09:03:02;;;;;;;16.67;3.40;;;;;;;-147.95;100.00;58458.38;5021563;28;20045;-73
2023/07/25 09:05:48;;;;;;;14.40;2.53;;;;;;;-147.95;100.00;58458.38;5015867;28;20064;-73
2023/07/25 09:08:34;;;;;;;13.05;2.55;;;;;;;-147.95;100.00;58458.38;5017016;28;20096;-72
2023/07/25 09:11:20;;;;;;;10.23;2.05;;;;;;;-147.95;100.00;58458.38;5016072;28;20046;-73
2023/07/25 09:14:06;;;;;;;15.20;3.30;;;;;;;-147.95;100.00;58458.38;5006497;28;20036;-73
2023/07/25 09:16:53;;;;;;;12.77;3.03;;;;;;;-147.95;100.00;58458.38;5002660;28;20100;-73
2023/07/25 09:19:38;;;;;;;6.25;2.55;;;;;;;-147.95;100.00;58458.38;5023889;28;20037;-73
2023/07/25 09:22:28;;;;;;;16.42;2.83;;;;;;;-147.95;100.00;58458.38;5002272;28;20042;-73
2023/07/25 09:25:15;;;;;;;9.35;2.28;;;;;;;-147.95;100.00;58458.38;5018099;28;20037;-72
2023/07/25 09:28:01;;;;;;;12.50;2.53;;;;;;;-147.95;100.00;58458.38;5015555;28;20033;-73
2023/07/25 09:30:48;;;;;;;8.57;2.22;;;;;;;-147.95;100.00;58458.38;4993848;28;20077;-72
2023/07/25 09:33:34;;;;;;;10.60;1.58;;;;;;;-147.95;100.00;58458.38;5013780;28;20080;-72
2023/07/25 09:36:20;;;;;;;8.07;1.70;;;;;;;-147.95;100.00;58458.38;5013240;28;20084;-73
2023/07/25 09:39:06;;;;;;;8.05;1.60;;;;;;;-147.95;100.00;58458.38;5014317;28;20041;-72
2023/07/25 09:41:52;;;;;;;5.63;1.17;;;;;;;-147.95;100.00;58458.38;4998043;28;20056;-72
2023/07/25 09:44:46;;;;;;;12.07;1.80;;;;;;;-147.95;100.00;58458.38;5000233;28;20536;-72
2023/07/25 09:47:31;;;;;;;11.70;1.77;;;;;;;-147.95;100.00;58458.38;5010126;28;20034;-72
2023/07/25 09:50:17;;;;;;;9.98;1.90;;;;;;;-147.95;100.00;58458.38;5011600;28;20034;-75
2023/07/25 09:53:09;;;;;;;9.07;1.77;;;;;;;-147.95;100.00;58458.38;5001855;28;20050;-72
2023/07/25 09:55:55;;;;;;;8.57;1.95;;;;;;;-147.95;100.00;58458.38;5005534;28;20081;-73
2023/07/25 09:58:41;;;;;;;13.02;2.20;;;;;;;-147.95;100.00;58458.38;5008435;28;20121;-73
2023/07/25 10:01:27;;;;;;;10.95;1.95;;;;;;;-147.95;100.00;58458.38;5007606;28;20037;-73
2023/07/25 10:04:16;;;;;;;17.95;2.15;;;;;;;-147.95;100.00;58458.38;5022830;28;20106;-73
2023/07/25 10:07:02;;;;;;;14.70;2.20;;;;;;;-147.95;100.00;58458.38;5021371;28;20037;-73
2023/07/25 10:09:48;;;;;;;10.85;2.08;;;;;;;-147.95;100.00;58458.38;4991157;28;20093;-74
2023/07/25 10:12:33;;;;;;;15.60;1.88;;;;;;;-147.95;100.00;58458.38;5016411;28;20069;-72
2023/07/25 10:15:20;;;;;;;8.70;1.75;;;;;;;-147.95;100.00;58458.38;5008714;28;20072;-73
2023/07/25 10:18:19;;;;;;;16.33;1.60;;;;;;;-147.95;100.00;58458.38;5013846;28;20053;-73
2023/07/25 10:21:08;;;;;;;7.85;2.00;;;;;;;-147.95;100.00;58458.38;5011585;28;20053;-72
2023/07/25 10:24:02;;;;;;;15.85;1.58;;;;;;;-147.95;100.00;58458.38;5010967;28;20037;-73
2023/07/25 10:26:59;;;;;;;20.85;1.60;;;;;;;-147.95;100.00;58458.38;5011591;28;20038;-72
2023/07/25 10:29:49;;;;;;;9.43;1.35;;;;;;;-147.95;100.00;58458.38;4987162;28;20073;-72
2023/07/25 10:32:45;;;;;;;10.30;2.08;;;;;;;-147.95;100.00;58458.38;5006610;28;20042;-72
2023/07/25 10:35:52;;;;;;;8.65;1.25;;;;;;;-147.95;100.00;58458.38;4994634;28;20050;-72
2023/07/25 10:38:43;;;;;;;7.72;1.52;;;;;;;-147.95;100.00;58458.38;5003486;28;20095;-72
2023/07/25 10:41:28;;;;;;;11.27;1.88;;;;;;;-147.95;100.00;58458.38;4982961;28;20038;-72
2023/07/25 10:44:37;;;;;;;7.28;1.55;;;;;;;-147.95;100.00;58458.38;5007205;28;20030;-72
2023/07/25 10:47:42;;;;;;;10.75;1.75;;;;;;;-147.95;100.00;58458.38;5006250;28;20508;-72
2023/07/25 10:50:49;;;;;;;10.82;1.48;;;;;;;-147.95;100.00;58458.38;4967988;28;20464;-72
2023/07/25 10:53:35;;;;;;;4.28;1.30;;;;;;;-147.95;100.00;58458.38;5006428;28;20037;-72
2023/07/25 10:56:21;;;;;;;10.55;1.40;;;;;;;-147.95;100.00;58458.38;4978536;28;20061;-72
2023/07/25 10:59:11;;;;;;;10.55;1.30;;;;;;;-147.95;100.00;58458.38;5002245;28;20069;-73
2023/07/25 11:01:56;;;;;;;4.38;1.10;;;;;;;-147.95;100.00;58458.38;4979925;28;20034;-73
2023/07/25 11:04:42;;;;;;;8.80;1.40;;;;;;;-147.95;100.00;58458.38;5007726;28;20076;-72
2023/07/25 11:07:28;;;;;;;5.45;1.13;;;;;;;-147.95;100.00;58458.38;4992108;28;20092;-72
2023/07/25 11:10:27;;;;;;;8.05;1.05;;;;;;;-147.95;100.00;58458.38;5012507;28;20408;-72
2023/07/25 11:13:13;;;;;;;6.00;1.10;;;;;;;-147.95;100.00;58458.38;5003831;28;20081;-73
2023/07/25 11:16:07;;;;;;;10.95;1.75;;;;;;;-147.95;100.00;58458.38;5009126;28;20026;-73
2023/07/25 11:18:53;;;;;;;11.93;1.50;;;;;;;-147.95;100.00;58458.38;5002902;28;20485;-73
2023/07/25 11:21:41;;;;;;;11.50;1.33;;;;;;;-147.95;100.00;58458.38;5007719;28;20042;-73
2023/07/25 11:24:27;;;;;;;5.72;1.52;;;;;;;-147.95;100.00;58458.38;5007693;28;20034;-73
2023/07/25 11:27:14;;;;;;;9.13;2.08;;;;;;;-147.95;100.00;58458.38;5006724;28;20034;-72
2023/07/25 11:30:11;;;;;;;6.90;1.70;;;;;;;-147.95;100.00;58458.38;5002920;28;20081;-72
2023/07/25 11:32:56;;;;;;;8.88;1.38;;;;;;;-147.95;100.00;58458.38;5009289;28;20054;-73
2023/07/25 11:35:42;;;;;;;9.85;1.15;;;;;;;-147.95;100.00;58458.38;5003448;28;20057;-73
2023/07/25 11:38:28;;;;;;;6.97;0.80;;;;;;;-147.95;100.00;58458.38;5007120;28;20045;-73
2023/07/25 11:41:14;;;;;;;5.00;0.88;;;;;;;-147.95;100.00;58458.38;4987532;28;20121;-73
2023/07/25 11:43:59;;;;;;;3.63;0.80;;;;;;;-147.95;100.00;58458.38;4982507;28;20476;-72
2023/07/25 11:46:51;;;;;;;3.40;0.80;;;;;;;-147.95;100.00;58458.38;5009967;28;20073;-72
2023/07/25 11:49:37;;;;;;;7.93;1.10;;;;;;;-147.95;100.00;58458.38;5004248;28;20607;-73
2023/07/25 11:52:23;;;;;;;7.00;1.33;;;;;;;-147.95;100.00;58458.38;5008037;28;20042;-72
2023/07/25 11:55:10;;;;;;;6.43;0.82;;;;;;;-147.95;100.00;58458.38;5005297;28;20048;-72
2023/07/25 11:58:01;;;;;;;6.43;0.90;;;;;;;-147.95;100.00;58458.38;4996590;28;20112;-72
2023/07/25 12:00:54;;;;;;;2.47;0.88;;;;;;;-147.95;100.00;58458.38;5012090;28;20025;-74
2023/07/25 12:03:46;;;;;;;9.30;0.90;;;;;;;-147.95;100.00;58458.38;5008810;28;20042;-72
2023/07/25 12:06:33;;;;;;;7.07;1.30;;;;;;;-147.95;100.00;58458.38;5007133;28;20120;-72
2023/07/25 12:09:27;;;;;;;3.17;0.90;;;;;;;-147.95;100.00;58458.38;5011089;28;20022;-72
2023/07/25 12:12:13;;;;;;;7.82;0.88;;;;;;;-147.95;100.00;58458.38;5012138;28;20037;-72
2023/07/25 12:15:01;;;;;;;10.00;1.02;;;;;;;-147.95;100.00;58458.38;5002187;28;20119;-72
2023/07/25 12:17:47;;;;;;;9.60;0.93;;;;;;;-147.95;100.00;58458.38;5009335;28;20704;-72
2023/07/25 12:20:39;;;;;;;8.95;0.80;;;;;;;-147.95;100.00;58458.38;5005089;28;20128;-72
2023/07/25 12:23:33;;;;;;;6.63;1.10;;;;;;;-147.95;100.00;58458.38;5003315;28;20034;-71
2023/07/25 12:26:20;;;;;;;3.70;0.80;;;;;;;-147.95;100.00;58458.38;5013475;28;20038;-72